sensor_id;sensor_type;location;lat;lon;timestamp;P1;durP1;ratioP1;P2;durP2;ratioP2
20294;SDS011;10306;52.128;5.208;2022-08-01T00:02:15;2.00;;;1.87;;
20294;SDS011;10306;52.128;5.208;2022-08-01T00:04:41;1.20;;;1.20;;
20294;SDS011;10306;52.128;5.208;2022-08-01T00:07:07;1.50;;;1.47;;
20294;SDS011;10306;52.128;5.208;2022-08-01T00:09:33;1.23;;;1.23;;
20294;SDS011;10306;52.128;5.208;2022-08-01T00:11:59;1.20;;;1.20;;
20294;SDS011;10306;52.128;5.208;2022-08-01T00:14:25;1.53;;;1.43;;
20294;SDS011;10306;52.128;5.208;2022-08-01T00:16:51;1.30;;;1.30;;
20294;SDS011;10306;52.128;5.208;2022-08-01T00:19:17;1.57;;;1.53;;
20294;SDS011;10306;52.128;5.208;2022-08-01T00:21:43;1.50;;;1.50;;
20294;SDS011;10306;52.128;5.208;2022-08-01T00:24:09;1.40;;;1.30;;
20294;SDS011;10306;52.128;5.208;2022-08-01T00:26:35;2.87;;;1.67;;
20294;SDS011;10306;52.128;5.208;2022-08-01T00:29:01;1.80;;;1.70;;
20294;SDS011;10306;52.128;5.208;2022-08-01T00:31:27;1.48;;;1.40;;
20294;SDS011;10306;52.128;5.208;2022-08-01T00:33:53;1.80;;;1.70;;
20294;SDS011;10306;52.128;5.208;2022-08-01T00:36:19;1.80;;;1.70;;
20294;SDS011;10306;52.128;5.208;2022-08-01T00:38:45;1.80;;;1.70;;
20294;SDS011;10306;52.128;5.208;2022-08-01T00:41:11;1.30;;;1.20;;
20294;SDS011;10306;52.128;5.208;2022-08-01T00:43:37;1.47;;;1.47;;
20294;SDS011;10306;52.128;5.208;2022-08-01T00:46:03;1.53;;;1.50;;
20294;SDS011;10306;52.128;5.208;2022-08-01T00:48:29;1.60;;;1.50;;
20294;SDS011;10306;52.128;5.208;2022-08-01T00:50:55;1.83;;;1.73;;
20294;SDS011;10306;52.128;5.208;2022-08-01T00:53:21;1.20;;;1.17;;
20294;SDS011;10306;52.128;5.208;2022-08-01T00:55:47;1.70;;;1.60;;
20294;SDS011;10306;52.128;5.208;2022-08-01T00:58:13;1.73;;;1.63;;
20294;SDS011;10306;52.128;5.208;2022-08-01T01:00:39;2.20;;;2.10;;
20294;SDS011;10306;52.128;5.208;2022-08-01T01:03:05;1.47;;;1.47;;
20294;SDS011;10306;52.128;5.208;2022-08-01T01:05:32;1.90;;;1.80;;
20294;SDS011;10306;52.128;5.208;2022-08-01T01:08:02;2.30;;;2.10;;
20294;SDS011;10306;52.128;5.208;2022-08-01T01:13:25;2.70;;;2.53;;
20294;SDS011;10306;52.128;5.208;2022-08-01T01:15:57;2.60;;;2.40;;
20294;SDS011;10306;52.128;5.208;2022-08-01T01:18:30;2.30;;;2.20;;
20294;SDS011;10306;52.128;5.208;2022-08-01T01:20:59;2.40;;;2.30;;
20294;SDS011;10306;52.128;5.208;2022-08-01T01:31:27;2.83;;;2.63;;
20294;SDS011;10306;52.128;5.208;2022-08-01T01:33:54;2.33;;;2.23;;
20294;SDS011;10306;52.128;5.208;2022-08-01T01:36:20;2.23;;;2.13;;
20294;SDS011;10306;52.128;5.208;2022-08-01T01:38:47;2.40;;;2.20;;
20294;SDS011;10306;52.128;5.208;2022-08-01T01:41:14;2.13;;;2.03;;
20294;SDS011;10306;52.128;5.208;2022-08-01T01:43:41;1.80;;;1.70;;
20294;SDS011;10306;52.128;5.208;2022-08-01T01:46:08;2.73;;;2.43;;
20294;SDS011;10306;52.128;5.208;2022-08-01T01:48:35;2.20;;;2.10;;
20294;SDS011;10306;52.128;5.208;2022-08-01T01:51:01;2.30;;;2.20;;
20294;SDS011;10306;52.128;5.208;2022-08-01T01:53:29;2.13;;;2.00;;
20294;SDS011;10306;52.128;5.208;2022-08-01T01:55:57;2.30;;;2.20;;
20294;SDS011;10306;52.128;5.208;2022-08-01T01:58:24;2.27;;;2.17;;
20294;SDS011;10306;52.128;5.208;2022-08-01T02:00:52;2.33;;;2.23;;
20294;SDS011;10306;52.128;5.208;2022-08-01T02:03:18;2.40;;;2.30;;
20294;SDS011;10306;52.128;5.208;2022-08-01T02:05:45;3.20;;;2.13;;
20294;SDS011;10306;52.128;5.208;2022-08-01T02:08:13;1.90;;;1.80;;
20294;SDS011;10306;52.128;5.208;2022-08-01T02:10:40;2.10;;;1.97;;
20294;SDS011;10306;52.128;5.208;2022-08-01T02:13:06;2.03;;;1.63;;
20294;SDS011;10306;52.128;5.208;2022-08-01T02:15:33;2.10;;;2.00;;
20294;SDS011;10306;52.128;5.208;2022-08-01T02:17:59;2.10;;;2.00;;
20294;SDS011;10306;52.128;5.208;2022-08-01T02:20:26;1.83;;;1.73;;
20294;SDS011;10306;52.128;5.208;2022-08-01T02:22:56;1.77;;;1.67;;
20294;SDS011;10306;52.128;5.208;2022-08-01T02:25:31;2.30;;;2.20;;
20294;SDS011;10306;52.128;5.208;2022-08-01T02:28:09;2.27;;;2.17;;
20294;SDS011;10306;52.128;5.208;2022-08-01T02:30:37;2.10;;;2.00;;
20294;SDS011;10306;52.128;5.208;2022-08-01T02:33:08;2.37;;;2.27;;
20294;SDS011;10306;52.128;5.208;2022-08-01T02:35:38;2.07;;;1.97;;
20294;SDS011;10306;52.128;5.208;2022-08-01T02:38:06;2.10;;;2.00;;
20294;SDS011;10306;52.128;5.208;2022-08-01T02:40:34;2.10;;;2.00;;
20294;SDS011;10306;52.128;5.208;2022-08-01T02:43:03;2.53;;;2.33;;
20294;SDS011;10306;52.128;5.208;2022-08-01T02:45:30;2.20;;;2.10;;
20294;SDS011;10306;52.128;5.208;2022-08-01T02:48:11;2.07;;;1.97;;
20294;SDS011;10306;52.128;5.208;2022-08-01T02:50:38;2.30;;;2.20;;
20294;SDS011;10306;52.128;5.208;2022-08-01T02:53:05;2.27;;;2.17;;
20294;SDS011;10306;52.128;5.208;2022-08-01T02:55:32;2.23;;;2.13;;
20294;SDS011;10306;52.128;5.208;2022-08-01T02:58:00;2.40;;;2.30;;
20294;SDS011;10306;52.128;5.208;2022-08-01T03:00:27;3.57;;;2.07;;
20294;SDS011;10306;52.128;5.208;2022-08-01T03:02:53;2.13;;;2.03;;
20294;SDS011;10306;52.128;5.208;2022-08-01T03:05:20;2.30;;;2.20;;
20294;SDS011;10306;52.128;5.208;2022-08-01T03:07:46;2.17;;;2.07;;
20294;SDS011;10306;52.128;5.208;2022-08-01T03:10:12;1.83;;;1.73;;
20294;SDS011;10306;52.128;5.208;2022-08-01T03:12:40;1.70;;;1.60;;
20294;SDS011;10306;52.128;5.208;2022-08-01T03:15:07;2.20;;;2.10;;
20294;SDS011;10306;52.128;5.208;2022-08-01T03:17:34;1.93;;;1.77;;
20294;SDS011;10306;52.128;5.208;2022-08-01T03:20:03;1.87;;;1.77;;
20294;SDS011;10306;52.128;5.208;2022-08-01T03:22:29;1.87;;;1.77;;
20294;SDS011;10306;52.128;5.208;2022-08-01T03:24:56;2.00;;;1.90;;
20294;SDS011;10306;52.128;5.208;2022-08-01T03:27:23;1.97;;;1.87;;
20294;SDS011;10306;52.128;5.208;2022-08-01T03:29:50;2.03;;;1.97;;
20294;SDS011;10306;52.128;5.208;2022-08-01T03:32:17;1.90;;;1.70;;
20294;SDS011;10306;52.128;5.208;2022-08-01T03:34:43;1.73;;;1.63;;
20294;SDS011;10306;52.128;5.208;2022-08-01T03:37:30;1.87;;;1.77;;
20294;SDS011;10306;52.128;5.208;2022-08-01T03:40:06;2.20;;;2.10;;
20294;SDS011;10306;52.128;5.208;2022-08-01T03:42:34;2.03;;;1.93;;
20294;SDS011;10306;52.128;5.208;2022-08-01T03:45:11;2.33;;;2.23;;
20294;SDS011;10306;52.128;5.208;2022-08-01T03:47:42;2.00;;;1.90;;
20294;SDS011;10306;52.128;5.208;2022-08-01T03:50:09;2.00;;;1.90;;
20294;SDS011;10306;52.128;5.208;2022-08-01T03:52:36;1.93;;;1.80;;
20294;SDS011;10306;52.128;5.208;2022-08-01T03:55:04;2.03;;;1.93;;
20294;SDS011;10306;52.128;5.208;2022-08-01T03:57:34;1.93;;;1.83;;
20294;SDS011;10306;52.128;5.208;2022-08-01T04:00:01;1.93;;;1.83;;
20294;SDS011;10306;52.128;5.208;2022-08-01T04:02:27;3.03;;;2.83;;
20294;SDS011;10306;52.128;5.208;2022-08-01T04:04:54;2.33;;;2.23;;
20294;SDS011;10306;52.128;5.208;2022-08-01T04:07:20;2.80;;;2.60;;
20294;SDS011;10306;52.128;5.208;2022-08-01T04:09:46;2.60;;;2.50;;
20294;SDS011;10306;52.128;5.208;2022-08-01T04:12:12;2.60;;;2.50;;
20294;SDS011;10306;52.128;5.208;2022-08-01T04:14:38;2.63;;;2.50;;
20294;SDS011;10306;52.128;5.208;2022-08-01T04:17:04;2.40;;;2.30;;
20294;SDS011;10306;52.128;5.208;2022-08-01T04:19:30;2.70;;;2.50;;
20294;SDS011;10306;52.128;5.208;2022-08-01T04:21:56;2.90;;;2.70;;
20294;SDS011;10306;52.128;5.208;2022-08-01T04:24:22;2.80;;;2.70;;
20294;SDS011;10306;52.128;5.208;2022-08-01T04:26:49;2.33;;;2.20;;
20294;SDS011;10306;52.128;5.208;2022-08-01T04:29:16;2.53;;;2.43;;
20294;SDS011;10306;52.128;5.208;2022-08-01T04:31:43;2.30;;;2.20;;
20294;SDS011;10306;52.128;5.208;2022-08-01T04:34:11;2.87;;;2.67;;
20294;SDS011;10306;52.128;5.208;2022-08-01T04:36:38;2.60;;;2.50;;
20294;SDS011;10306;52.128;5.208;2022-08-01T04:39:06;2.57;;;2.47;;
20294;SDS011;10306;52.128;5.208;2022-08-01T04:41:34;2.60;;;2.50;;
20294;SDS011;10306;52.128;5.208;2022-08-01T04:44:00;3.07;;;2.67;;
20294;SDS011;10306;52.128;5.208;2022-08-01T04:46:28;1.67;;;1.60;;
20294;SDS011;10306;52.128;5.208;2022-08-01T04:48:54;1.83;;;1.73;;
20294;SDS011;10306;52.128;5.208;2022-08-01T04:51:21;1.67;;;1.63;;
20294;SDS011;10306;52.128;5.208;2022-08-01T04:53:47;2.43;;;2.33;;
20294;SDS011;10306;52.128;5.208;2022-08-01T04:56:15;1.73;;;1.63;;
20294;SDS011;10306;52.128;5.208;2022-08-01T04:58:41;2.10;;;2.00;;
20294;SDS011;10306;52.128;5.208;2022-08-01T05:01:07;1.87;;;1.77;;
20294;SDS011;10306;52.128;5.208;2022-08-01T05:03:33;1.93;;;1.80;;
20294;SDS011;10306;52.128;5.208;2022-08-01T05:05:59;1.70;;;1.60;;
20294;SDS011;10306;52.128;5.208;2022-08-01T05:08:25;2.13;;;2.03;;
20294;SDS011;10306;52.128;5.208;2022-08-01T05:10:51;2.07;;;1.97;;
20294;SDS011;10306;52.128;5.208;2022-08-01T05:13:17;1.50;;;1.50;;
20294;SDS011;10306;52.128;5.208;2022-08-01T05:15:43;1.40;;;1.40;;
20294;SDS011;10306;52.128;5.208;2022-08-01T05:18:09;1.60;;;1.60;;
20294;SDS011;10306;52.128;5.208;2022-08-01T05:20:36;1.63;;;1.53;;
20294;SDS011;10306;52.128;5.208;2022-08-01T05:23:02;1.90;;;1.80;;
20294;SDS011;10306;52.128;5.208;2022-08-01T05:25:28;1.40;;;1.40;;
20294;SDS011;10306;52.128;5.208;2022-08-01T05:27:54;1.30;;;1.30;;
20294;SDS011;10306;52.128;5.208;2022-08-01T05:30:20;1.37;;;1.30;;
20294;SDS011;10306;52.128;5.208;2022-08-01T05:32:46;1.17;;;1.17;;
20294;SDS011;10306;52.128;5.208;2022-08-01T05:35:12;0.80;;;0.80;;
20294;SDS011;10306;52.128;5.208;2022-08-01T05:37:38;1.20;;;1.00;;
20294;SDS011;10306;52.128;5.208;2022-08-01T05:40:04;1.20;;;1.10;;
20294;SDS011;10306;52.128;5.208;2022-08-01T05:42:30;0.93;;;0.93;;
20294;SDS011;10306;52.128;5.208;2022-08-01T05:44:57;0.70;;;0.70;;
20294;SDS011;10306;52.128;5.208;2022-08-01T05:47:23;0.77;;;0.77;;
20294;SDS011;10306;52.128;5.208;2022-08-01T05:49:48;0.80;;;0.80;;
20294;SDS011;10306;52.128;5.208;2022-08-01T05:52:14;0.70;;;0.70;;
20294;SDS011;10306;52.128;5.208;2022-08-01T05:54:40;0.80;;;0.80;;
20294;SDS011;10306;52.128;5.208;2022-08-01T05:57:06;0.90;;;0.90;;
20294;SDS011;10306;52.128;5.208;2022-08-01T05:59:32;0.70;;;0.70;;
20294;SDS011;10306;52.128;5.208;2022-08-01T06:01:58;0.90;;;0.90;;
20294;SDS011;10306;52.128;5.208;2022-08-01T06:04:24;0.60;;;0.60;;
20294;SDS011;10306;52.128;5.208;2022-08-01T06:06:50;0.80;;;0.80;;
20294;SDS011;10306;52.128;5.208;2022-08-01T06:09:16;0.67;;;0.67;;
20294;SDS011;10306;52.128;5.208;2022-08-01T06:11:42;0.90;;;0.90;;
20294;SDS011;10306;52.128;5.208;2022-08-01T06:14:08;0.83;;;0.83;;
20294;SDS011;10306;52.128;5.208;2022-08-01T06:16:34;0.80;;;0.80;;
20294;SDS011;10306;52.128;5.208;2022-08-01T06:19:01;0.67;;;0.67;;
20294;SDS011;10306;52.128;5.208;2022-08-01T06:21:27;0.70;;;0.70;;
20294;SDS011;10306;52.128;5.208;2022-08-01T06:23:53;0.90;;;0.90;;
20294;SDS011;10306;52.128;5.208;2022-08-01T06:26:19;0.70;;;0.70;;
20294;SDS011;10306;52.128;5.208;2022-08-01T06:28:45;0.80;;;0.80;;
20294;SDS011;10306;52.128;5.208;2022-08-01T06:31:11;0.63;;;0.63;;
20294;SDS011;10306;52.128;5.208;2022-08-01T06:33:38;0.70;;;0.70;;
20294;SDS011;10306;52.128;5.208;2022-08-01T06:36:04;0.90;;;0.90;;
20294;SDS011;10306;52.128;5.208;2022-08-01T06:38:30;0.90;;;0.90;;
20294;SDS011;10306;52.128;5.208;2022-08-01T06:40:56;0.90;;;0.90;;
20294;SDS011;10306;52.128;5.208;2022-08-01T06:43:22;1.00;;;1.00;;
20294;SDS011;10306;52.128;5.208;2022-08-01T06:45:48;0.70;;;0.70;;
20294;SDS011;10306;52.128;5.208;2022-08-01T06:48:14;0.90;;;0.90;;
20294;SDS011;10306;52.128;5.208;2022-08-01T06:50:40;0.90;;;0.90;;
20294;SDS011;10306;52.128;5.208;2022-08-01T06:53:06;0.70;;;0.70;;
20294;SDS011;10306;52.128;5.208;2022-08-01T06:55:32;0.93;;;0.93;;
20294;SDS011;10306;52.128;5.208;2022-08-01T06:57:58;3.17;;;2.03;;
20294;SDS011;10306;52.128;5.208;2022-08-01T07:00:24;0.80;;;0.80;;
20294;SDS011;10306;52.128;5.208;2022-08-01T07:02:51;0.77;;;0.77;;
20294;SDS011;10306;52.128;5.208;2022-08-01T07:05:18;1.20;;;1.10;;
20294;SDS011;10306;52.128;5.208;2022-08-01T07:07:44;1.10;;;1.00;;
20294;SDS011;10306;52.128;5.208;2022-08-01T07:10:10;2.10;;;1.67;;
20294;SDS011;10306;52.128;5.208;2022-08-01T07:12:36;1.17;;;1.17;;
20294;SDS011;10306;52.128;5.208;2022-08-01T07:15:06;1.40;;;1.40;;
20294;SDS011;10306;52.128;5.208;2022-08-01T07:17:32;1.30;;;1.30;;
20294;SDS011;10306;52.128;5.208;2022-08-01T07:20:01;1.87;;;1.27;;
20294;SDS011;10306;52.128;5.208;2022-08-01T07:22:27;1.40;;;1.30;;
20294;SDS011;10306;52.128;5.208;2022-08-01T07:24:53;1.50;;;1.50;;
20294;SDS011;10306;52.128;5.208;2022-08-01T07:27:19;1.30;;;1.30;;
20294;SDS011;10306;52.128;5.208;2022-08-01T07:29:45;2.17;;;1.50;;
20294;SDS011;10306;52.128;5.208;2022-08-01T07:32:11;1.07;;;1.07;;
20294;SDS011;10306;52.128;5.208;2022-08-01T07:34:37;1.50;;;1.40;;
20294;SDS011;10306;52.128;5.208;2022-08-01T07:37:03;1.00;;;1.00;;
20294;SDS011;10306;52.128;5.208;2022-08-01T07:39:29;1.70;;;1.60;;
20294;SDS011;10306;52.128;5.208;2022-08-01T07:41:55;1.10;;;1.10;;
20294;SDS011;10306;52.128;5.208;2022-08-01T07:44:21;1.20;;;1.20;;
20294;SDS011;10306;52.128;5.208;2022-08-01T07:46:47;1.30;;;1.30;;
20294;SDS011;10306;52.128;5.208;2022-08-01T07:49:13;1.20;;;1.20;;
20294;SDS011;10306;52.128;5.208;2022-08-01T07:51:39;1.07;;;1.07;;
20294;SDS011;10306;52.128;5.208;2022-08-01T07:54:05;1.50;;;1.40;;
20294;SDS011;10306;52.128;5.208;2022-08-01T07:56:32;1.47;;;1.40;;
20294;SDS011;10306;52.128;5.208;2022-08-01T07:58:58;1.47;;;1.20;;
20294;SDS011;10306;52.128;5.208;2022-08-01T08:01:24;4.00;;;1.77;;
20294;SDS011;10306;52.128;5.208;2022-08-01T08:03:51;1.40;;;1.30;;
20294;SDS011;10306;52.128;5.208;2022-08-01T08:06:17;1.00;;;1.00;;
20294;SDS011;10306;52.128;5.208;2022-08-01T08:08:43;1.20;;;1.20;;
20294;SDS011;10306;52.128;5.208;2022-08-01T08:11:09;1.10;;;1.10;;
20294;SDS011;10306;52.128;5.208;2022-08-01T08:13:35;1.20;;;1.00;;
20294;SDS011;10306;52.128;5.208;2022-08-01T08:16:01;1.13;;;1.13;;
20294;SDS011;10306;52.128;5.208;2022-08-01T08:18:27;1.20;;;1.20;;
20294;SDS011;10306;52.128;5.208;2022-08-01T08:20:53;1.53;;;1.43;;
20294;SDS011;10306;52.128;5.208;2022-08-01T08:23:19;1.17;;;1.17;;
20294;SDS011;10306;52.128;5.208;2022-08-01T08:26:03;1.00;;;1.00;;
20294;SDS011;10306;52.128;5.208;2022-08-01T08:28:29;1.17;;;1.07;;
20294;SDS011;10306;52.128;5.208;2022-08-01T08:30:56;1.53;;;1.00;;
20294;SDS011;10306;52.128;5.208;2022-08-01T08:33:21;1.37;;;1.00;;
20294;SDS011;10306;52.128;5.208;2022-08-01T08:35:48;1.20;;;1.20;;
20294;SDS011;10306;52.128;5.208;2022-08-01T08:38:14;1.70;;;1.60;;
20294;SDS011;10306;52.128;5.208;2022-08-01T08:40:40;1.60;;;1.40;;
20294;SDS011;10306;52.128;5.208;2022-08-01T08:43:06;0.87;;;0.87;;
20294;SDS011;10306;52.128;5.208;2022-08-01T08:45:33;0.80;;;0.80;;
20294;SDS011;10306;52.128;5.208;2022-08-01T08:47:59;1.73;;;1.50;;
20294;SDS011;10306;52.128;5.208;2022-08-01T08:50:26;2.10;;;1.57;;
20294;SDS011;10306;52.128;5.208;2022-08-01T08:52:52;1.60;;;1.50;;
20294;SDS011;10306;52.128;5.208;2022-08-01T08:55:19;1.40;;;1.30;;
20294;SDS011;10306;52.128;5.208;2022-08-01T08:57:45;1.10;;;1.10;;
20294;SDS011;10306;52.128;5.208;2022-08-01T09:00:13;2.80;;;1.23;;
20294;SDS011;10306;52.128;5.208;2022-08-01T09:02:42;1.13;;;1.03;;
20294;SDS011;10306;52.128;5.208;2022-08-01T09:05:08;1.20;;;1.10;;
20294;SDS011;10306;52.128;5.208;2022-08-01T09:07:35;0.93;;;0.90;;
20294;SDS011;10306;52.128;5.208;2022-08-01T09:10:01;1.63;;;0.98;;
20294;SDS011;10306;52.128;5.208;2022-08-01T09:12:27;0.95;;;0.93;;
20294;SDS011;10306;52.128;5.208;2022-08-01T09:14:53;0.80;;;0.80;;
20294;SDS011;10306;52.128;5.208;2022-08-01T09:17:19;0.90;;;0.90;;
20294;SDS011;10306;52.128;5.208;2022-08-01T09:19:49;1.05;;;1.02;;
20294;SDS011;10306;52.128;5.208;2022-08-01T09:22:20;1.15;;;1.05;;
20294;SDS011;10306;52.128;5.208;2022-08-01T09:25:07;0.70;;;0.70;;
20294;SDS011;10306;52.128;5.208;2022-08-01T09:27:34;0.77;;;0.77;;
20294;SDS011;10306;52.128;5.208;2022-08-01T09:30:07;2.00;;;1.08;;
20294;SDS011;10306;52.128;5.208;2022-08-01T09:32:33;0.95;;;0.60;;
20294;SDS011;10306;52.128;5.208;2022-08-01T09:35:03;1.00;;;1.00;;
20294;SDS011;10306;52.128;5.208;2022-08-01T09:37:45;0.95;;;0.95;;
20294;SDS011;10306;52.128;5.208;2022-08-01T09:40:11;0.95;;;0.73;;
20294;SDS011;10306;52.128;5.208;2022-08-01T09:42:37;1.05;;;0.95;;
20294;SDS011;10306;52.128;5.208;2022-08-01T09:45:03;2.08;;;0.98;;
20294;SDS011;10306;52.128;5.208;2022-08-01T09:47:38;1.83;;;0.90;;
20294;SDS011;10306;52.128;5.208;2022-08-01T09:50:04;0.70;;;0.70;;
20294;SDS011;10306;52.128;5.208;2022-08-01T09:52:31;0.80;;;0.80;;
20294;SDS011;10306;52.128;5.208;2022-08-01T09:55:00;1.23;;;0.90;;
20294;SDS011;10306;52.128;5.208;2022-08-01T09:57:27;1.08;;;1.05;;
20294;SDS011;10306;52.128;5.208;2022-08-01T09:59:56;0.80;;;0.80;;
20294;SDS011;10306;52.128;5.208;2022-08-01T10:02:40;0.70;;;0.70;;
20294;SDS011;10306;52.128;5.208;2022-08-01T10:05:07;0.75;;;0.75;;
20294;SDS011;10306;52.128;5.208;2022-08-01T10:07:34;0.65;;;0.65;;
20294;SDS011;10306;52.128;5.208;2022-08-01T10:10:13;1.20;;;0.80;;
20294;SDS011;10306;52.128;5.208;2022-08-01T10:12:40;0.60;;;0.60;;
20294;SDS011;10306;52.128;5.208;2022-08-01T10:15:06;0.93;;;0.93;;
20294;SDS011;10306;52.128;5.208;2022-08-01T10:17:33;0.75;;;0.75;;
20294;SDS011;10306;52.128;5.208;2022-08-01T10:20:00;0.55;;;0.55;;
20294;SDS011;10306;52.128;5.208;2022-08-01T10:22:27;0.95;;;0.95;;
20294;SDS011;10306;52.128;5.208;2022-08-01T10:24:55;1.48;;;0.80;;
20294;SDS011;10306;52.128;5.208;2022-08-01T10:27:23;1.13;;;0.90;;
20294;SDS011;10306;52.128;5.208;2022-08-01T10:29:57;0.73;;;0.73;;
20294;SDS011;10306;52.128;5.208;2022-08-01T10:32:33;1.00;;;0.90;;
20294;SDS011;10306;52.128;5.208;2022-08-01T10:35:00;0.60;;;0.60;;
20294;SDS011;10306;52.128;5.208;2022-08-01T10:37:26;0.70;;;0.70;;
20294;SDS011;10306;52.128;5.208;2022-08-01T10:39:52;0.60;;;0.60;;
20294;SDS011;10306;52.128;5.208;2022-08-01T10:42:19;0.70;;;0.70;;
20294;SDS011;10306;52.128;5.208;2022-08-01T10:44:45;0.50;;;0.50;;
20294;SDS011;10306;52.128;5.208;2022-08-01T10:47:17;0.73;;;0.73;;
20294;SDS011;10306;52.128;5.208;2022-08-01T10:49:46;0.90;;;0.90;;
20294;SDS011;10306;52.128;5.208;2022-08-01T10:52:19;1.75;;;0.98;;
20294;SDS011;10306;52.128;5.208;2022-08-01T10:54:45;1.00;;;1.00;;
20294;SDS011;10306;52.128;5.208;2022-08-01T10:57:11;0.70;;;0.70;;
20294;SDS011;10306;52.128;5.208;2022-08-01T10:59:50;0.93;;;0.93;;
20294;SDS011;10306;52.128;5.208;2022-08-01T11:02:25;0.93;;;0.85;;
20294;SDS011;10306;52.128;5.208;2022-08-01T11:04:56;1.48;;;0.95;;
20294;SDS011;10306;52.128;5.208;2022-08-01T11:07:24;0.70;;;0.70;;
20294;SDS011;10306;52.128;5.208;2022-08-01T11:10:04;0.80;;;0.80;;
20294;SDS011;10306;52.128;5.208;2022-08-01T11:12:40;1.10;;;0.98;;
20294;SDS011;10306;52.128;5.208;2022-08-01T11:17:33;0.80;;;0.80;;
20294;SDS011;10306;52.128;5.208;2022-08-01T11:20:06;1.25;;;0.90;;
20294;SDS011;10306;52.128;5.208;2022-08-01T11:22:58;1.00;;;1.00;;
20294;SDS011;10306;52.128;5.208;2022-08-01T11:25:18;0.50;;;0.50;;
20294;SDS011;10306;52.128;5.208;2022-08-01T11:27:44;0.50;;;0.50;;
20294;SDS011;10306;52.128;5.208;2022-08-01T11:30:21;0.60;;;0.60;;
20294;SDS011;10306;52.128;5.208;2022-08-01T11:32:54;0.70;;;0.70;;
20294;SDS011;10306;52.128;5.208;2022-08-01T11:35:21;0.60;;;0.60;;
20294;SDS011;10306;52.128;5.208;2022-08-01T11:37:49;0.50;;;0.50;;
20294;SDS011;10306;52.128;5.208;2022-08-01T11:42:42;0.80;;;0.80;;
20294;SDS011;10306;52.128;5.208;2022-08-01T11:45:08;1.05;;;0.93;;
20294;SDS011;10306;52.128;5.208;2022-08-01T11:47:47;0.60;;;0.60;;
20294;SDS011;10306;52.128;5.208;2022-08-01T11:52:58;0.43;;;0.43;;
20294;SDS011;10306;52.128;5.208;2022-08-01T11:55:24;0.60;;;0.60;;
20294;SDS011;10306;52.128;5.208;2022-08-01T11:57:50;0.60;;;0.60;;
20294;SDS011;10306;52.128;5.208;2022-08-01T12:00:24;0.45;;;0.45;;
20294;SDS011;10306;52.128;5.208;2022-08-01T12:03:23;0.50;;;0.50;;
20294;SDS011;10306;52.128;5.208;2022-08-01T12:05:43;0.45;;;0.45;;
20294;SDS011;10306;52.128;5.208;2022-08-01T12:08:09;0.60;;;0.60;;
20294;SDS011;10306;52.128;5.208;2022-08-01T12:10:35;0.52;;;0.52;;
20294;SDS011;10306;52.128;5.208;2022-08-01T12:13:03;0.98;;;0.63;;
20294;SDS011;10306;52.128;5.208;2022-08-01T12:15:30;0.52;;;0.52;;
20294;SDS011;10306;52.128;5.208;2022-08-01T12:17:57;0.50;;;0.50;;
20294;SDS011;10306;52.128;5.208;2022-08-01T12:20:23;0.88;;;0.88;;
20294;SDS011;10306;52.128;5.208;2022-08-01T12:22:53;0.47;;;0.47;;
20294;SDS011;10306;52.128;5.208;2022-08-01T12:25:19;0.68;;;0.60;;
20294;SDS011;10306;52.128;5.208;2022-08-01T12:27:46;0.40;;;0.40;;
20294;SDS011;10306;52.128;5.208;2022-08-01T12:30:16;0.65;;;0.55;;
20294;SDS011;10306;52.128;5.208;2022-08-01T12:32:44;0.50;;;0.50;;
20294;SDS011;10306;52.128;5.208;2022-08-01T12:35:20;0.57;;;0.57;;
20294;SDS011;10306;52.128;5.208;2022-08-01T12:40:22;0.70;;;0.50;;
20294;SDS011;10306;52.128;5.208;2022-08-01T12:42:49;0.50;;;0.50;;
20294;SDS011;10306;52.128;5.208;2022-08-01T12:45:17;0.50;;;0.50;;
20294;SDS011;10306;52.128;5.208;2022-08-01T12:47:44;0.50;;;0.50;;
20294;SDS011;10306;52.128;5.208;2022-08-01T12:50:12;0.68;;;0.60;;
20294;SDS011;10306;52.128;5.208;2022-08-01T12:52:38;0.82;;;0.60;;
20294;SDS011;10306;52.128;5.208;2022-08-01T12:55:05;0.60;;;0.60;;
20294;SDS011;10306;52.128;5.208;2022-08-01T12:57:33;0.50;;;0.50;;
20294;SDS011;10306;52.128;5.208;2022-08-01T13:02:37;0.60;;;0.60;;
20294;SDS011;10306;52.128;5.208;2022-08-01T13:05:04;0.52;;;0.52;;
20294;SDS011;10306;52.128;5.208;2022-08-01T13:07:37;0.47;;;0.47;;
20294;SDS011;10306;52.128;5.208;2022-08-01T13:10:03;0.50;;;0.50;;
20294;SDS011;10306;52.128;5.208;2022-08-01T13:12:30;0.85;;;0.85;;
20294;SDS011;10306;52.128;5.208;2022-08-01T13:14:56;0.40;;;0.40;;
20294;SDS011;10306;52.128;5.208;2022-08-01T13:17:32;0.50;;;0.50;;
20294;SDS011;10306;52.128;5.208;2022-08-01T13:20:00;0.50;;;0.50;;
20294;SDS011;10306;52.128;5.208;2022-08-01T13:22:33;0.60;;;0.60;;
20294;SDS011;10306;52.128;5.208;2022-08-01T13:25:12;0.50;;;0.50;;
20294;SDS011;10306;52.128;5.208;2022-08-01T13:27:38;0.40;;;0.40;;
20294;SDS011;10306;52.128;5.208;2022-08-01T13:30:17;0.40;;;0.40;;
20294;SDS011;10306;52.128;5.208;2022-08-01T13:32:56;1.55;;;0.68;;
20294;SDS011;10306;52.128;5.208;2022-08-01T13:35:22;0.40;;;0.40;;
20294;SDS011;10306;52.128;5.208;2022-08-01T13:37:48;0.40;;;0.40;;
20294;SDS011;10306;52.128;5.208;2022-08-01T13:40:22;0.50;;;0.50;;
20294;SDS011;10306;52.128;5.208;2022-08-01T13:42:48;0.40;;;0.40;;
20294;SDS011;10306;52.128;5.208;2022-08-01T13:45:14;0.45;;;0.45;;
20294;SDS011;10306;52.128;5.208;2022-08-01T13:47:41;0.45;;;0.45;;
20294;SDS011;10306;52.128;5.208;2022-08-01T13:50:07;0.60;;;0.40;;
20294;SDS011;10306;52.128;5.208;2022-08-01T13:52:33;0.40;;;0.40;;
20294;SDS011;10306;52.128;5.208;2022-08-01T13:54:59;0.47;;;0.47;;
20294;SDS011;10306;52.128;5.208;2022-08-01T13:57:25;0.40;;;0.40;;
20294;SDS011;10306;52.128;5.208;2022-08-01T13:59:51;0.70;;;0.70;;
20294;SDS011;10306;52.128;5.208;2022-08-01T14:02:17;0.40;;;0.40;;
20294;SDS011;10306;52.128;5.208;2022-08-01T14:04:43;0.40;;;0.40;;
20294;SDS011;10306;52.128;5.208;2022-08-01T14:07:09;0.50;;;0.50;;
20294;SDS011;10306;52.128;5.208;2022-08-01T14:09:35;0.50;;;0.50;;
20294;SDS011;10306;52.128;5.208;2022-08-01T14:12:01;0.47;;;0.47;;
20294;SDS011;10306;52.128;5.208;2022-08-01T14:14:27;0.50;;;0.50;;
20294;SDS011;10306;52.128;5.208;2022-08-01T14:16:53;0.60;;;0.40;;
20294;SDS011;10306;52.128;5.208;2022-08-01T14:19:19;0.40;;;0.40;;
20294;SDS011;10306;52.128;5.208;2022-08-01T14:21:45;0.82;;;0.63;;
20294;SDS011;10306;52.128;5.208;2022-08-01T14:24:11;0.50;;;0.50;;
20294;SDS011;10306;52.128;5.208;2022-08-01T14:26:37;1.67;;;0.55;;
20294;SDS011;10306;52.128;5.208;2022-08-01T14:29:03;0.73;;;0.52;;
20294;SDS011;10306;52.128;5.208;2022-08-01T14:31:29;0.50;;;0.50;;
20294;SDS011;10306;52.128;5.208;2022-08-01T14:33:55;0.63;;;0.63;;
20294;SDS011;10306;52.128;5.208;2022-08-01T14:36:21;0.47;;;0.47;;
20294;SDS011;10306;52.128;5.208;2022-08-01T14:38:47;0.40;;;0.40;;
20294;SDS011;10306;52.128;5.208;2022-08-01T14:41:14;0.70;;;0.70;;
20294;SDS011;10306;52.128;5.208;2022-08-01T14:43:40;0.50;;;0.50;;
20294;SDS011;10306;52.128;5.208;2022-08-01T14:46:06;0.50;;;0.50;;
20294;SDS011;10306;52.128;5.208;2022-08-01T14:48:34;0.30;;;0.30;;
20294;SDS011;10306;52.128;5.208;2022-08-01T14:51:00;0.47;;;0.47;;
20294;SDS011;10306;52.128;5.208;2022-08-01T14:53:27;0.73;;;0.70;;
20294;SDS011;10306;52.128;5.208;2022-08-01T14:55:53;0.40;;;0.40;;
20294;SDS011;10306;52.128;5.208;2022-08-01T14:58:19;0.40;;;0.40;;
20294;SDS011;10306;52.128;5.208;2022-08-01T15:00:45;0.50;;;0.50;;
20294;SDS011;10306;52.128;5.208;2022-08-01T15:03:11;0.50;;;0.50;;
20294;SDS011;10306;52.128;5.208;2022-08-01T15:05:37;0.43;;;0.43;;
20294;SDS011;10306;52.128;5.208;2022-08-01T15:08:04;0.90;;;0.57;;
20294;SDS011;10306;52.128;5.208;2022-08-01T15:10:31;0.40;;;0.40;;
20294;SDS011;10306;52.128;5.208;2022-08-01T15:12:57;0.50;;;0.50;;
20294;SDS011;10306;52.128;5.208;2022-08-01T15:15:24;2.05;;;0.47;;